Time;durP1;ratioP1;P1;durP2;ratioP2;P2;SDS_P1;SDS_P2;PMS_P1;PMS_P2;Temp;Humidity;BMP_temperature;BMP_pressure;BME280_temperature;BME280_humidity;BME280_pressure;Samples;Min_cycle;Max_cycle;Signal;HPM_P1;HPM_P2
2024/01/09 05:46:50;;;;;;;4.57;3.28;;;;;;;-2.91;100.00;103473.69;5559810;24;20527;-75
2024/01/09 05:49:15;;;;;;;3.72;2.55;;;;;;;-2.95;100.00;103470.56;4791021;29;20039;-73
2024/01/09 05:51:41;;;;;;;6.70;3.05;;;;;;;-2.99;100.00;103471.22;4795218;29;20043;-73
2024/01/09 05:54:06;;;;;;;3.25;2.75;;;;;;;-3.11;100.00;103477.41;4793556;29;20070;-75
2024/01/09 05:56:31;;;;;;;4.50;2.55;;;;;;;-3.39;100.00;103479.72;4788814;29;20045;-74
2024/01/09 05:58:57;;;;;;;7.90;3.05;;;;;;;-3.28;100.00;103476.28;4786355;29;20476;-74
2024/01/09 06:01:22;;;;;;;4.88;2.85;;;;;;;-2.97;100.00;103463.59;4790698;29;20501;-74
2024/01/09 06:03:47;;;;;;;4.43;2.78;;;;;;;-3.09;100.00;103480.78;4790401;29;20039;-73
2024/01/09 06:06:13;;;;;;;5.20;3.10;;;;;;;-3.15;100.00;103475.34;4791970;29;20077;-75
2024/01/09 06:08:38;;;;;;;5.57;3.38;;;;;;;-3.30;100.00;103475.66;4789440;29;20065;-74
2024/01/09 06:11:04;;;;;;;3.53;2.60;;;;;;;-3.08;100.00;103485.22;4792917;29;20183;-75
2024/01/09 06:13:29;;;;;;;4.60;3.10;;;;;;;-3.27;100.00;103483.41;4789024;29;20027;-74
2024/01/09 06:15:55;;;;;;;6.63;2.60;;;;;;;-3.45;100.00;103484.16;4790777;29;20043;-75
2024/01/09 06:18:20;;;;;;;7.00;3.05;;;;;;;-3.38;100.00;103478.66;4791554;29;20062;-74
2024/01/09 06:20:45;;;;;;;6.75;3.33;;;;;;;-3.35;100.00;103480.94;4793469;29;20035;-74
2024/01/09 06:23:11;;;;;;;5.47;3.53;;;;;;;-3.31;100.00;103480.31;4790298;29;20043;-75
2024/01/09 06:25:36;;;;;;;5.47;3.08;;;;;;;-3.19;100.00;103491.38;4786905;29;20126;-74
2024/01/09 06:28:02;;;;;;;5.45;3.10;;;;;;;-3.59;100.00;103483.38;4789984;29;20037;-74
2024/01/09 06:30:27;;;;;;;3.70;2.65;;;;;;;-3.60;100.00;103489.09;4805359;29;20031;-74
2024/01/09 06:32:52;;;;;;;5.68;3.00;;;;;;;-3.54;100.00;103489.06;4793647;29;20046;-74
2024/01/09 06:35:18;;;;;;;5.78;3.15;;;;;;;-3.53;100.00;103490.72;4792180;29;20124;-73
2024/01/09 06:37:44;;;;;;;3.15;2.53;;;;;;;-3.30;100.00;103495.66;4792240;29;20035;-74
2024/01/09 06:40:09;;;;;;;5.07;3.40;;;;;;;-3.36;100.00;103503.91;4789657;29;20043;-74
2024/01/09 06:42:34;;;;;;;4.07;2.38;;;;;;;-3.27;100.00;103502.59;4789116;29;20122;-74
2024/01/09 06:45:00;;;;;;;4.97;3.03;;;;;;;-3.35;100.00;103502.84;4791419;29;20067;-74
2024/01/09 06:47:25;;;;;;;5.30;3.08;;;;;;;-3.55;100.00;103505.69;4791449;29;20042;-74
2024/01/09 06:49:51;;;;;;;5.47;2.80;;;;;;;-3.45;100.00;103513.47;4793022;29;20417;-73
2024/01/09 06:52:16;;;;;;;5.07;2.63;;;;;;;-3.52;100.00;103517.06;4793315;29;20122;-74
2024/01/09 06:54:41;;;;;;;5.15;2.83;;;;;;;-3.55;100.00;103506.53;4790655;29;20035;-74
2024/01/09 06:57:07;;;;;;;5.03;2.47;;;;;;;-3.63;100.00;103509.53;4794416;29;20180;-76
2024/01/09 06:59:32;;;;;;;5.05;3.22;;;;;;;-3.51;100.00;103512.44;4797805;29;20134;-76
2024/01/09 07:01:57;;;;;;;7.90;4.25;;;;;;;-3.23;100.00;103514.78;4789333;29;20035;-77
2024/01/09 07:04:23;;;;;;;5.43;2.95;;;;;;;-3.24;100.00;103518.59;4794684;29;20063;-76
2024/01/09 07:06:48;;;;;;;5.72;2.78;;;;;;;-3.50;100.00;103517.69;4794173;29;20043;-76
2024/01/09 07:09:14;;;;;;;3.20;2.40;;;;;;;-3.03;100.00;103517.41;4789955;29;20066;-77
2024/01/09 07:11:39;;;;;;;4.75;2.92;;;;;;;-3.11;100.00;103518.50;4793583;29;20031;-76
2024/01/09 07:14:04;;;;;;;6.93;3.35;;;;;;;-3.84;100.00;103516.13;4798869;29;20038;-76
2024/01/09 07:16:30;;;;;;;3.33;2.30;;;;;;;-3.42;100.00;103518.50;4797968;29;20043;-77
2024/01/09 07:18:55;;;;;;;4.90;3.00;;;;;;;-3.24;100.00;103526.00;4788558;29;20030;-77
2024/01/09 07:21:20;;;;;;;4.75;3.05;;;;;;;-3.76;100.00;103517.78;4790535;29;20055;-76
2024/01/09 07:23:47;;;;;;;5.10;2.80;;;;;;;-3.25;100.00;103519.66;4792748;29;20564;-76
2024/01/09 07:26:13;;;;;;;5.35;3.10;;;;;;;-2.82;100.00;103521.69;4794138;29;20043;-77
2024/01/09 07:28:38;;;;;;;4.15;2.63;;;;;;;-3.31;100.00;103528.75;4795054;29;20039;-76
2024/01/09 07:31:04;;;;;;;6.32;2.88;;;;;;;-3.25;100.00;103530.59;4793156;29;20047;-76
2024/01/09 07:33:29;;;;;;;4.20;2.72;;;;;;;-3.16;100.00;103521.09;4791708;29;20105;-76
2024/01/09 07:35:54;;;;;;;6.93;3.28;;;;;;;-2.85;100.00;103524.88;4793487;29;20034;-76
2024/01/09 07:38:24;;;;;;;2.45;2.10;;;;;;;-2.81;100.00;103531.59;4790058;29;20461;-76
2024/01/09 07:40:49;;;;;;;5.13;2.65;;;;;;;-2.76;100.00;103537.25;4793213;29;20038;-76
2024/01/09 07:43:16;;;;;;;5.35;3.15;;;;;;;-2.75;100.00;103535.34;4795693;29;20039;-75
2024/01/09 07:45:41;;;;;;;5.47;2.83;;;;;;;-2.77;100.00;103532.81;4795074;29;20034;-75
2024/01/09 07:48:07;;;;;;;2.38;1.92;;;;;;;-2.81;100.00;103541.72;4794854;29;20108;-76
2024/01/09 07:50:32;;;;;;;6.07;2.75;;;;;;;-3.05;100.00;103540.63;4796775;29;20034;-75
2024/01/09 07:52:58;;;;;;;5.03;3.20;;;;;;;-2.95;100.00;103539.09;4796878;29;20508;-76
2024/01/09 07:55:24;;;;;;;4.28;2.58;;;;;;;-2.89;100.00;103540.06;4799319;29;20058;-76
2024/01/09 07:57:49;;;;;;;6.57;3.17;;;;;;;-2.83;100.00;103539.19;4792413;29;20046;-75
2024/01/09 08:00:15;;;;;;;4.68;3.33;;;;;;;-2.81;100.00;103541.72;4793885;29;20027;-76
2024/01/09 08:02:40;;;;;;;4.05;2.45;;;;;;;-2.80;100.00;103538.75;4788671;29;20478;-76
2024/01/09 08:05:06;;;;;;;7.55;3.20;;;;;;;-2.79;100.00;103537.69;4791383;29;20434;-76
2024/01/09 08:07:31;;;;;;;6.22;2.75;;;;;;;-2.83;100.00;103547.41;4795405;29;20047;-76
2024/01/09 08:09:56;;;;;;;4.32;3.08;;;;;;;-2.95;100.00;103547.31;4792533;29;20448;-76
2024/01/09 08:12:22;;;;;;;7.55;2.80;;;;;;;-2.97;100.00;103549.41;4794701;29;20031;-75
2024/01/09 08:14:49;;;;;;;6.55;2.80;;;;;;;-2.93;100.00;103552.53;4792961;29;20474;-75
2024/01/09 08:17:14;;;;;;;7.68;3.30;;;;;;;-3.02;100.00;103551.13;4792877;29;20035;-75
2024/01/09 08:19:39;;;;;;;4.93;3.08;;;;;;;-2.92;100.00;103562.47;4790603;29;20494;-75
2024/01/09 08:22:05;;;;;;;6.68;3.13;;;;;;;-2.91;100.00;103558.63;4793936;29;20035;-75
2024/01/09 08:24:31;;;;;;;5.25;2.88;;;;;;;-3.00;100.00;103559.97;4791236;29;20439;-75
2024/01/09 08:26:57;;;;;;;4.35;2.67;;;;;;;-2.98;100.00;103557.84;4795730;29;20054;-75
2024/01/09 08:29:26;;;;;;;3.17;2.35;;;;;;;-3.09;100.00;103557.50;4796031;29;20531;-75
2024/01/09 08:31:52;;;;;;;6.13;3.05;;;;;;;-2.98;100.00;103560.59;4792365;29;20030;-75
2024/01/09 08:34:18;;;;;;;4.53;2.55;;;;;;;-2.93;100.00;103561.63;4796071;29;20092;-74
2024/01/09 08:36:43;;;;;;;6.20;2.83;;;;;;;-2.94;100.00;103557.19;4792807;29;20601;-75
2024/01/09 08:39:10;;;;;;;6.13;2.70;;;;;;;-2.88;100.00;103547.25;4794313;29;20064;-75
2024/01/09 08:41:36;;;;;;;5.75;3.10;;;;;;;-2.96;100.00;103555.75;4790976;29;21567;-75
2024/01/09 08:44:02;;;;;;;6.55;3.25;;;;;;;-3.07;100.00;103560.84;4795880;29;20031;-76
2024/01/09 08:46:27;;;;;;;3.20;2.03;;;;;;;-3.10;100.00;103560.44;4793387;29;20031;-75
2024/01/09 08:48:52;;;;;;;3.85;2.28;;;;;;;-3.10;100.00;103564.03;4793478;29;20406;-75
2024/01/09 08:51:18;;;;;;;4.05;2.58;;;;;;;-3.24;100.00;103559.69;4787608;29;20038;-75
2024/01/09 08:53:44;;;;;;;6.93;2.95;;;;;;;-3.12;100.00;103563.44;4790243;29;20490;-75
2024/01/09 08:56:09;;;;;;;2.90;1.73;;;;;;;-3.10;100.00;103564.03;4791484;29;20057;-75
2024/01/09 08:58:35;;;;;;;4.47;2.60;;;;;;;-2.94;100.00;103564.56;4792322;29;20150;-75
2024/01/09 09:01:00;;;;;;;6.65;2.75;;;;;;;-2.94;100.00;103568.16;4792035;29;20113;-75
2024/01/09 09:03:26;;;;;;;6.10;3.03;;;;;;;-3.04;100.00;103554.09;4790668;29;20067;-75
2024/01/09 09:05:51;;;;;;;5.72;2.42;;;;;;;-2.97;100.00;103559.53;4792350;29;20027;-75
2024/01/09 09:08:18;;;;;;;7.95;2.72;;;;;;;-3.08;100.00;103559.19;4791230;29;20031;-74
2024/01/09 09:10:43;;;;;;;7.05;2.58;;;;;;;-3.03;100.00;103568.66;4789410;29;20491;-75
2024/01/09 09:13:09;;;;;;;4.25;2.03;;;;;;;-3.11;100.00;103558.78;4792117;29;20035;-75
2024/01/09 09:15:35;;;;;;;5.03;2.67;;;;;;;-3.01;100.00;103569.28;4797209;29;20100;-75
2024/01/09 09:18:00;;;;;;;3.83;2.47;;;;;;;-2.99;100.00;103553.41;4791547;29;20125;-74
2024/01/09 09:20:26;;;;;;;5.78;2.78;;;;;;;-3.05;100.00;103557.06;4787398;29;20034;-72
2024/01/09 09:22:51;;;;;;;5.43;2.65;;;;;;;-2.92;100.00;103565.19;4788539;29;20490;-74
2024/01/09 09:25:17;;;;;;;4.68;2.80;;;;;;;-3.10;100.00;103561.31;4796202;29;20041;-72
2024/01/09 09:27:42;;;;;;;5.40;2.30;;;;;;;-2.92;100.00;103559.72;4790910;29;20099;-72
2024/01/09 09:30:11;;;;;;;3.85;2.83;;;;;;;-3.04;100.00;103553.25;4792446;29;20396;-73
2024/01/09 09:32:36;;;;;;;3.70;2.97;;;;;;;-2.89;100.00;103560.13;4793354;29;20058;-75
2024/01/09 09:35:02;;;;;;;3.70;2.17;;;;;;;-2.94;100.00;103559.94;4796247;29;20374;-71
2024/01/09 09:37:27;;;;;;;4.43;2.67;;;;;;;-2.84;100.00;103553.16;4792672;29;20042;-74
2024/01/09 09:39:53;;;;;;;3.50;1.88;;;;;;;-2.88;98.82;103548.09;4791963;29;20027;-75
2024/01/09 09:42:20;;;;;;;4.03;2.17;;;;;;;-2.78;100.00;103555.84;4790822;29;20113;-72
2024/01/09 09:44:52;;;;;;;6.35;2.85;;;;;;;-2.80;98.14;103547.00;4796000;29;20046;-73
2024/01/09 09:47:19;;;;;;;;;;;;;;;-2.83;100.00;103552.91;4786887;29;20050;-72
2024/01/09 09:49:46;;;;;;;3.17;2.10;;;;;;;-2.84;97.27;103559.47;4794506;29;19969;-73
2024/01/09 09:52:12;;;;;;;2.60;1.65;;;;;;;-2.86;96.38;103567.06;4791630;29;20030;-74
2024/01/09 09:54:38;;;;;;;7.13;3.35;;;;;;;-2.78;96.87;103566.78;4792726;29;20045;-72
2024/01/09 09:57:05;;;;;;;4.93;2.25;;;;;;;-2.76;94.63;103552.84;4792965;29;20031;-72
2024/01/09 09:59:30;;;;;;;3.60;2.10;;;;;;;-2.76;90.89;103561.94;4795252;29;20528;-74
2024/01/09 10:01:57;;;;;;;4.93;2.53;;;;;;;-2.68;93.07;103569.03;4798885;29;20039;-73
2024/01/09 10:04:51;;;;;;;9.90;2.55;;;;;;;-2.74;90.42;103561.69;4795412;29;20095;-72
2024/01/09 10:07:20;;;;;;;4.63;2.75;;;;;;;-2.67;92.04;103559.75;4790706;29;20051;-73
2024/01/09 10:09:49;;;;;;;2.63;1.83;;;;;;;-2.72;85.65;103562.31;4793982;29;20505;-73
2024/01/09 10:12:15;;;;;;;4.10;2.00;;;;;;;-2.69;88.58;103559.97;4788264;29;20111;-74
2024/01/09 10:15:01;;;;;;;4.13;2.53;;;;;;;-2.72;87.57;103551.34;4786516;29;20117;-71
2024/01/09 10:17:26;;;;;;;2.63;1.98;;;;;;;-2.84;85.39;103544.91;4792207;29;20632;-74
2024/01/09 10:19:52;;;;;;;5.70;2.45;;;;;;;-2.81;85.74;103537.06;4795758;29;20059;-73
2024/01/09 10:22:17;;;;;;;7.68;2.67;;;;;;;-2.68;82.39;103531.50;4787614;29;20077;-72
2024/01/09 10:24:42;;;;;;;4.50;2.85;;;;;;;-2.59;86.15;103540.28;4796402;29;20481;-73
2024/01/09 10:27:08;;;;;;;4.75;2.45;;;;;;;-2.59;82.47;103533.94;4794049;29;20083;-73
2024/01/09 10:29:37;;;;;;;3.08;2.15;;;;;;;-2.73;81.27;103534.06;4806633;29;20031;-72
2024/01/09 10:32:03;;;;;;;7.15;2.72;;;;;;;-2.77;80.56;103538.31;4787597;29;20068;-72
2024/01/09 10:34:31;;;;;;;3.78;2.58;;;;;;;-2.51;85.70;103533.66;4794400;29;20054;-72
2024/01/09 10:37:06;;;;;;;3.22;2.78;;;;;;;-2.52;80.09;103530.09;4786511;29;20489;-75
2024/01/09 10:39:32;;;;;;;4.93;2.40;;;;;;;-2.72;78.19;103524.78;4790452;29;20731;-76
2024/01/09 10:42:04;;;;;;;5.35;2.47;;;;;;;-2.71;77.26;103529.19;4789323;29;20042;-76
2024/01/09 10:44:30;;;;;;;4.97;2.65;;;;;;;-2.50;81.14;103513.41;4788956;29;20054;-76
2024/01/09 10:46:59;;;;;;;5.00;2.88;;;;;;;-2.49;78.19;103518.69;4799207;29;20050;-76
2024/01/09 10:49:25;;;;;;;4.70;2.50;;;;;;;-2.50;75.95;103519.75;4790412;29;20050;-76
2024/01/09 10:51:52;;;;;;;5.35;2.50;;;;;;;-2.42;80.55;103515.00;4786036;29;20043;-76
2024/01/09 10:54:18;;;;;;;5.05;1.95;;;;;;;-2.40;81.50;103516.50;4787320;29;20509;-76
2024/01/09 10:56:44;;;;;;;4.15;2.33;;;;;;;-2.58;73.86;103522.75;4790093;29;20043;-75
2024/01/09 10:59:11;;;;;;;3.30;2.45;;;;;;;-2.51;75.21;103509.84;4790540;29;20465;-75
2024/01/09 11:01:36;;;;;;;3.45;1.88;;;;;;;-2.54;77.75;103506.69;4785839;29;20066;-75
2024/01/09 11:04:02;;;;;;;4.07;2.38;;;;;;;-2.33;83.58;103500.78;4790213;29;20039;-75
2024/01/09 11:06:30;;;;;;;4.75;2.17;;;;;;;-2.40;77.52;103513.75;4796742;29;20041;-75
2024/01/09 11:08:59;;;;;;;3.85;2.05;;;;;;;-2.52;78.04;103502.66;4791865;29;20159;-76
2024/01/09 11:11:26;;;;;;;6.72;2.42;;;;;;;-2.38;76.24;103508.88;4794969;29;20031;-76
2024/01/09 11:13:53;;;;;;;4.20;2.10;;;;;;;-2.21;80.78;103500.03;4789391;29;20126;-77
2024/01/09 11:16:20;;;;;;;3.97;2.20;;;;;;;-2.13;80.41;103500.59;4794308;29;20030;-76
2024/01/09 11:18:46;;;;;;;4.63;2.53;;;;;;;-2.03;84.03;103502.81;4792912;29;20474;-75
2024/01/09 11:21:12;;;;;;;3.17;2.13;;;;;;;-2.28;76.99;103500.97;4789190;29;20038;-76
2024/01/09 11:23:43;;;;;;;6.00;2.45;;;;;;;-2.07;83.94;103501.59;4789954;29;20504;-76
2024/01/09 11:26:12;;;;;;;3.15;2.17;;;;;;;-2.31;78.88;103493.19;4787337;29;20489;-75
2024/01/09 11:28:39;;;;;;;3.63;1.80;;;;;;;-2.27;76.05;103502.63;4789784;29;20504;-76
2024/01/09 11:31:06;;;;;;;4.07;2.15;;;;;;;-2.05;82.10;103496.72;4791659;29;20051;-76
2024/01/09 11:33:32;;;;;;;6.32;3.08;;;;;;;-2.11;80.62;103489.38;4793181;29;20091;-75
2024/01/09 11:36:04;;;;;;;5.47;2.60;;;;;;;-2.20;75.16;103488.00;4788538;29;20038;-75
2024/01/09 11:38:30;;;;;;;;;;;;;;;-2.20;74.82;103494.34;4790922;29;20027;-75
2024/01/09 11:40:55;;;;;;;3.28;2.40;;;;;;;-2.11;71.92;103493.00;4786666;29;20447;-76
2024/01/09 11:43:21;;;;;;;4.18;1.77;;;;;;;-2.14;80.37;103482.44;4787032;29;20125;-75
2024/01/09 11:45:47;;;;;;;3.97;2.55;;;;;;;-1.99;82.35;103479.31;4791474;29;20054;-75
2024/01/09 11:48:12;;;;;;;7.25;2.13;;;;;;;-2.29;75.22;103491.06;4790531;29;20043;-75
2024/01/09 11:50:38;;;;;;;3.78;2.03;;;;;;;-2.10;74.19;103486.41;4793018;29;20487;-75
2024/01/09 11:53:03;;;;;;;3.78;2.10;;;;;;;-2.00;77.03;103472.19;4796975;29;20023;-75
2024/01/09 11:55:29;;;;;;;3.25;2.45;;;;;;;-1.94;79.19;103475.88;4797601;29;20061;-75
2024/01/09 11:57:54;;;;;;;7.40;2.67;;;;;;;-1.91;73.46;103470.78;4792109;29;20042;-75
2024/01/09 12:00:20;;;;;;;2.95;2.03;;;;;;;-1.85;77.63;103472.63;4797838;29;20379;-75
2024/01/09 12:02:45;;;;;;;4.20;2.30;;;;;;;-1.98;73.35;103472.78;4794885;29;20152;-75
2024/01/09 12:05:10;;;;;;;3.50;2.50;;;;;;;-2.07;75.51;103468.66;4793440;29;20078;-75
2024/01/09 12:07:38;;;;;;;3.33;1.92;;;;;;;-1.85;79.23;103469.88;4796512;29;20042;-75
2024/01/09 12:10:05;;;;;;;3.35;2.42;;;;;;;-1.92;74.53;103452.66;4798833;29;20034;-75
2024/01/09 12:12:30;;;;;;;4.90;2.58;;;;;;;-1.96;72.62;103456.06;4799096;29;20035;-76
2024/01/09 12:14:58;;;;;;;3.05;2.17;;;;;;;-1.95;75.15;103447.59;4797456;29;20039;-76
2024/01/09 12:17:36;;;;;;;3.53;2.13;;;;;;;-2.15;75.29;103447.00;4794128;29;20042;-76
2024/01/09 12:20:03;;;;;;;4.93;2.50;;;;;;;-1.98;79.38;103449.97;4796438;29;20077;-76
2024/01/09 12:22:31;;;;;;;5.18;2.53;;;;;;;-1.87;75.67;103444.56;4795330;29;20516;-76
2024/01/09 12:24:58;;;;;;;3.28;2.05;;;;;;;-1.80;79.40;103446.38;4796111;29;20486;-76
2024/01/09 12:27:24;;;;;;;2.72;1.67;;;;;;;-1.86;79.80;103446.22;4793322;29;20042;-76
2024/01/09 12:29:53;;;;;;;2.97;2.65;;;;;;;-1.86;72.88;103446.22;4793101;29;20031;-76
2024/01/09 12:32:21;;;;;;;4.32;2.72;;;;;;;-1.77;72.19;103444.00;4791690;29;20035;-77
2024/01/09 12:34:46;;;;;;;6.38;2.63;;;;;;;-1.74;74.76;103439.97;4799277;29;20439;-77
2024/01/09 12:37:12;;;;;;;3.35;2.30;;;;;;;-1.66;78.08;103431.41;4799839;29;20131;-78
2024/01/09 12:39:39;;;;;;;8.52;2.75;;;;;;;-1.86;70.22;103435.22;4801247;29;20046;-77
2024/01/09 12:42:16;;;;;;;3.78;2.35;;;;;;;-1.73;73.35;103422.41;4797228;29;20035;-78
2024/01/09 12:44:42;;;;;;;4.68;2.00;;;;;;;-1.65;78.30;103424.81;4795953;29;20039;-77
2024/01/09 12:47:17;;;;;;;4.88;2.35;;;;;;;-1.70;71.73;103422.78;4795231;29;20057;-77
2024/01/09 12:49:46;;;;;;;2.90;1.80;;;;;;;-1.85;69.56;103419.63;4811381;29;20074;-77
2024/01/09 12:52:12;;;;;;;3.08;2.05;;;;;;;-1.72;71.63;103418.59;4798592;29;20034;-77
2024/01/09 12:54:40;;;;;;;5.50;2.60;;;;;;;-1.77;68.75;103424.78;4802290;29;20124;-76
2024/01/09 12:57:06;;;;;;;3.20;2.08;;;;;;;-1.70;68.51;103419.22;4798234;29;20042;-76
2024/01/09 12:59:32;;;;;;;2.97;2.30;;;;;;;-1.60;72.43;103416.75;4801039;29;20068;-77
2024/01/09 13:01:58;;;;;;;2.60;1.98;;;;;;;-1.56;75.48;103406.97;4791341;29;20498;-77
2024/01/09 13:04:24;;;;;;;4.07;1.98;;;;;;;-1.74;73.96;103412.50;4798818;29;20099;-77
2024/01/09 13:06:49;;;;;;;2.72;1.95;;;;;;;-1.58;66.99;103409.13;4790987;29;20490;-77
2024/01/09 13:09:14;;;;;;;2.45;1.95;;;;;;;-1.59;70.56;103399.19;4796191;29;20039;-76
2024/01/09 13:11:42;;;;;;;3.85;1.95;;;;;;;-1.53;66.26;103422.13;4802401;29;20083;-77
2024/01/09 13:14:10;;;;;;;4.60;2.63;;;;;;;-1.59;66.46;103415.66;4800252;29;20046;-75
2024/01/09 13:16:35;;;;;;;4.57;2.00;;;;;;;-1.55;67.79;103419.63;4796628;29;20046;-75
2024/01/09 13:19:05;;;;;;;3.65;2.17;;;;;;;-1.39;71.01;103406.28;4792559;29;20039;-75
2024/01/09 13:21:30;;;;;;;4.70;2.20;;;;;;;-1.57;67.40;103416.25;4801429;29;20042;-75
2024/01/09 13:23:56;;;;;;;5.72;2.28;;;;;;;-1.69;68.29;103412.63;4797839;29;20047;-75
2024/01/09 13:26:22;;;;;;;3.83;2.47;;;;;;;-1.66;68.66;103407.53;4797395;29;20061;-74
2024/01/09 13:28:48;;;;;;;4.75;1.60;;;;;;;-1.56;68.22;103404.22;4801801;29;20401;-75
2024/01/09 13:31:13;;;;;;;3.15;2.05;;;;;;;-1.57;66.41;103394.28;4796369;29;20129;-76
2024/01/09 13:33:39;;;;;;;4.10;2.60;;;;;;;-1.51;69.31;103398.03;4795010;29;20566;-75
2024/01/09 13:36:05;;;;;;;3.92;1.85;;;;;;;-1.41;67.62;103391.94;4803032;29;20027;-75
2024/01/09 13:38:31;;;;;;;2.97;2.17;;;;;;;-1.40;69.10;103399.13;4795532;29;20031;-75
2024/01/09 13:40:57;;;;;;;3.30;2.17;;;;;;;-1.56;65.90;103393.22;4795790;29;20039;-76
2024/01/09 13:43:22;;;;;;;4.47;1.98;;;;;;;-1.51;67.66;103398.84;4794136;29;20038;-76
2024/01/09 13:45:50;;;;;;;2.35;1.70;;;;;;;-0.24;77.37;103400.22;4796265;29;20497;-75
2024/01/09 13:48:18;;;;;;;3.65;2.05;;;;;;;-0.80;70.45;103387.97;4793931;29;20065;-75
2024/01/09 13:50:44;;;;;;;3.63;2.10;;;;;;;-1.33;66.99;103383.34;4795058;29;20402;-75
2024/01/09 13:53:10;;;;;;;2.88;2.30;;;;;;;-1.44;71.01;103387.75;4798706;29;20035;-75
2024/01/09 13:55:35;;;;;;;3.47;1.80;;;;;;;-1.47;70.84;103394.56;4799168;29;20035;-75
2024/01/09 13:58:01;;;;;;;3.28;2.03;;;;;;;-1.35;71.52;103386.38;4798609;29;20150;-75
2024/01/09 14:00:27;;;;;;;3.25;2.08;;;;;;;-1.40;72.10;103379.88;4797361;29;20118;-75
2024/01/09 14:02:53;;;;;;;3.60;2.33;;;;;;;-1.44;71.09;103377.59;4792418;29;20043;-76
2024/01/09 14:05:18;;;;;;;4.28;2.10;;;;;;;-1.44;74.14;103377.59;4801105;29;20502;-75
2024/01/09 14:07:44;;;;;;;3.05;2.13;;;;;;;-1.50;68.69;103374.97;4794191;29;20126;-76
2024/01/09 14:10:11;;;;;;;3.08;2.08;;;;;;;-0.90;84.25;103374.81;4797854;29;20478;-76
2024/01/09 14:12:37;;;;;;;2.67;1.85;;;;;;;-1.20;72.50;103366.69;4787829;29;20497;-77
2024/01/09 14:15:03;;;;;;;2.00;1.80;;;;;;;-1.51;66.03;103376.88;4793314;29;20041;-77
2024/01/09 14:17:29;;;;;;;4.07;2.05;;;;;;;-1.41;67.38;103375.44;4793001;29;20550;-78
2024/01/09 14:19:54;;;;;;;2.45;1.50;;;;;;;-1.41;71.97;103373.56;4792479;29;20071;-77
2024/01/09 14:22:21;;;;;;;3.92;2.00;;;;;;;-1.29;74.51;103373.56;4792341;29;20495;-77
2024/01/09 14:24:46;;;;;;;3.70;2.38;;;;;;;-1.21;73.72;103370.47;4795420;29;20624;-78
2024/01/09 14:27:12;;;;;;;2.28;2.03;;;;;;;-1.32;74.19;103368.56;4796138;29;20038;-77
2024/01/09 14:29:38;;;;;;;2.28;1.75;;;;;;;-1.39;71.87;103382.41;4792380;29;20051;-78
2024/01/09 14:32:04;;;;;;;6.25;2.53;;;;;;;-1.37;75.80;103382.16;4797900;29;20031;-77
2024/01/09 14:34:31;;;;;;;4.45;2.30;;;;;;;-1.58;72.74;103381.66;4794574;29;20487;-77
2024/01/09 14:36:56;;;;;;;9.32;2.42;;;;;;;-1.49;72.87;103380.22;4796233;29;20035;-77
2024/01/09 14:39:21;;;;;;;3.45;1.88;;;;;;;-1.42;73.03;103380.13;4794578;29;20081;-77
2024/01/09 14:41:47;;;;;;;3.00;1.80;;;;;;;-0.42;77.46;103381.13;4800125;29;20037;-77
2024/01/09 14:44:12;;;;;;;8.25;4.28;;;;;;;-1.09;74.63;103374.09;4794631;29;20031;-77
2024/01/09 14:46:38;;;;;;;5.28;2.03;;;;;;;-1.17;76.56;103377.19;4792190;29;20059;-77
2024/01/09 14:49:03;;;;;;;2.70;1.90;;;;;;;-1.24;77.05;103387.47;4799460;29;20042;-77
2024/01/09 14:51:28;;;;;;;3.95;2.28;;;;;;;-1.28;75.56;103384.34;4792190;29;20121;-77
2024/01/09 14:53:55;;;;;;;5.30;2.47;;;;;;;-1.26;77.03;103384.09;4796129;29;20558;-79
2024/01/09 14:56:21;;;;;;;4.13;2.10;;;;;;;-1.13;71.36;103378.38;4799039;29;20062;-78
2024/01/09 14:58:47;;;;;;;3.03;1.88;;;;;;;-1.30;72.61;103380.97;4794503;29;20034;-77
2024/01/09 15:01:16;;;;;;;4.68;2.00;;;;;;;-1.30;75.66;103378.25;4790982;29;20046;-77
2024/01/09 15:03:47;;;;;;;5.57;2.60;;;;;;;-1.50;70.07;103378.53;4792893;29;20030;-77
2024/01/09 15:06:13;;;;;;;2.65;2.20;;;;;;;-1.47;72.66;103366.25;4787777;29;20508;-77
2024/01/09 15:08:38;;;;;;;3.22;2.30;;;;;;;-1.64;71.37;103371.59;4787737;29;20068;-77
2024/01/09 15:11:10;;;;;;;4.13;2.03;;;;;;;-1.55;72.54;103367.44;4786013;29;20122;-77
2024/01/09 15:13:38;;;;;;;3.83;2.38;;;;;;;-1.51;76.19;103360.41;4790634;29;20104;-76
2024/01/09 15:16:04;;;;;;;3.28;1.80;;;;;;;-1.56;71.31;103368.50;4791216;29;20038;-76
2024/01/09 15:18:29;;;;;;;3.70;2.05;;;;;;;-1.53;73.03;103357.03;4796146;29;20103;-76
2024/01/09 15:20:55;;;;;;;7.65;2.90;;;;;;;-1.40;74.64;103360.66;4791062;29;20057;-76
2024/01/09 15:23:20;;;;;;;3.78;2.28;;;;;;;-1.39;77.22;103362.31;4789370;29;20117;-76
2024/01/09 15:25:45;;;;;;;3.50;2.38;;;;;;;-1.45;77.44;103353.97;4787401;29;20035;-76
2024/01/09 15:28:12;;;;;;;3.97;2.63;;;;;;;-1.44;75.04;103344.63;4786922;29;20459;-74
2024/01/09 15:30:38;;;;;;;2.80;2.10;;;;;;;-1.59;73.02;103349.75;4790082;29;20514;-73
2024/01/09 15:33:07;;;;;;;3.55;2.40;;;;;;;-1.52;75.71;103353.25;4788972;29;20040;-74
2024/01/09 15:35:34;;;;;;;3.10;1.85;;;;;;;-1.45;77.36;103353.97;4795475;29;20045;-73
2024/01/09 15:38:00;;;;;;;5.35;3.42;;;;;;;-1.63;76.30;103356.78;4790462;29;20058;-74
2024/01/09 15:40:26;;;;;;;2.67;2.25;;;;;;;-1.61;74.77;103349.13;4795732;29;20532;-75
2024/01/09 15:42:52;;;;;;;4.70;2.05;;;;;;;-0.92;79.96;103352.22;4797755;29;20035;-74
2024/01/09 15:45:20;;;;;;;3.28;1.77;;;;;;;-1.60;78.02;103358.22;4795320;29;20058;-75
2024/01/09 15:47:46;;;;;;;4.15;2.28;;;;;;;-1.56;77.69;103356.66;4789246;29;20070;-75
2024/01/09 15:50:11;;;;;;;6.90;2.42;;;;;;;-1.55;82.80;103359.19;4793263;29;20070;-75
2024/01/09 15:52:37;;;;;;;3.47;2.63;;;;;;;-1.50;82.15;103361.22;4797150;29;20035;-75
2024/01/09 15:55:03;;;;;;;4.72;2.58;;;;;;;-1.68;81.31;103368.47;4794794;29;20035;-75
2024/01/09 15:57:28;;;;;;;3.67;1.85;;;;;;;-1.92;78.41;103359.31;4790343;29;20410;-75
2024/01/09 15:59:53;;;;;;;5.60;2.58;;;;;;;-1.74;86.32;103363.06;4796707;29;20038;-75
2024/01/09 16:02:19;;;;;;;2.88;2.20;;;;;;;-1.60;85.36;103366.44;4789953;29;20350;-76
2024/01/09 16:04:44;;;;;;;4.40;2.75;;;;;;;-1.62;82.92;103363.97;4793184;29;20034;-75
2024/01/09 16:07:11;;;;;;;4.75;2.10;;;;;;;-1.80;82.28;103370.31;4795243;29;20557;-75
2024/01/09 16:09:38;;;;;;;3.97;2.70;;;;;;;-1.68;85.84;103364.88;4794600;29;20557;-74
2024/01/09 16:12:04;;;;;;;4.65;2.17;;;;;;;-1.70;83.40;103378.00;4794243;29;20054;-75
2024/01/09 16:14:29;;;;;;;2.63;2.17;;;;;;;-1.63;89.92;103378.75;4796183;29;20096;-75
2024/01/09 16:16:54;;;;;;;3.83;2.60;;;;;;;-1.80;83.66;103372.25;4796933;29;20516;-74
2024/01/09 16:19:20;;;;;;;4.38;2.20;;;;;;;-1.52;89.05;103366.13;4791007;29;20588;-75
2024/01/09 16:21:45;;;;;;;4.88;2.15;;;;;;;-1.74;85.94;103371.31;4796445;29;20039;-76
2024/01/09 16:24:11;;;;;;;5.00;2.58;;;;;;;-1.86;86.11;103368.50;4795270;29;20046;-75
2024/01/09 16:26:39;;;;;;;4.28;2.28;;;;;;;-1.97;89.18;103369.31;4796766;29;20039;-75
2024/01/09 16:29:05;;;;;;;5.82;2.63;;;;;;;-1.80;85.83;103375.00;4792912;29;20077;-76
2024/01/09 16:31:30;;;;;;;3.22;2.40;;;;;;;-1.84;87.64;103372.69;4791193;29;20786;-76
2024/01/09 16:33:55;;;;;;;3.15;2.22;;;;;;;-2.06;88.10;103374.28;4794628;29;20100;-76
2024/01/09 16:36:22;;;;;;;3.58;2.10;;;;;;;-1.40;94.89;103366.16;4795663;29;20031;-77
2024/01/09 16:38:50;;;;;;;2.70;2.10;;;;;;;-1.80;93.12;103372.25;4788780;29;20062;-76
2024/01/09 16:41:15;;;;;;;4.80;2.50;;;;;;;-1.76;88.87;103368.78;4794014;29;20067;-76
2024/01/09 16:43:41;;;;;;;2.60;2.17;;;;;;;-1.76;92.64;103368.78;4796390;29;20122;-76
2024/01/09 16:46:06;;;;;;;4.32;1.88;;;;;;;-1.96;92.11;103379.22;4790719;29;20042;-77
2024/01/09 16:48:34;;;;;;;3.03;2.38;;;;;;;-2.12;87.77;103375.22;4795612;29;20061;-75
2024/01/09 16:50:59;;;;;;;4.70;1.90;;;;;;;-1.84;92.45;103369.94;4795060;29;20039;-75
2024/01/09 16:53:25;;;;;;;4.63;2.15;;;;;;;-1.98;92.05;103365.75;4795993;29;20276;-75
2024/01/09 16:55:54;;;;;;;2.42;2.00;;;;;;;-2.04;98.22;103358.44;4796025;29;20042;-75
2024/01/09 16:58:22;;;;;;;3.20;2.10;;;;;;;-2.21;89.93;103362.84;4795160;29;20125;-74
2024/01/09 17:00:48;;;;;;;2.05;1.90;;;;;;;-2.30;92.80;103379.66;4789873;29;20100;-76
2024/01/09 17:03:14;;;;;;;3.33;1.75;;;;;;;-2.23;95.27;103375.97;4797279;29;20042;-77